createdAt,value
2022-08-19T00:00:47.422Z,9.60
2022-08-19T00:05:49.324Z,10.70
2022-08-19T00:10:51.286Z,10.40
2022-08-19T00:15:53.270Z,12.00
2022-08-19T00:20:55.928Z,11.10
2022-08-19T00:25:57.958Z,10.80
2022-08-19T00:31:00.922Z,12.30
2022-08-19T00:36:07.398Z,12.00
2022-08-19T00:46:32.142Z,11.80
2022-08-19T00:51:40.883Z,12.60
2022-08-19T00:56:43.764Z,12.70
2022-08-19T01:01:47.466Z,13.30
2022-08-19T01:06:49.663Z,13.20
2022-08-19T01:11:52.358Z,13.80
2022-08-19T01:16:56.757Z,13.10
2022-08-19T01:22:30.107Z,14.00
2022-08-19T01:27:47.066Z,13.20
2022-08-19T01:32:50.682Z,13.70
2022-08-19T01:38:04.132Z,14.60
2022-08-19T01:43:07.081Z,14.90
2022-08-19T01:48:10.174Z,14.00
2022-08-19T01:53:12.938Z,15.20
2022-08-19T01:58:21.402Z,15.70
2022-08-19T02:03:24.034Z,13.90
2022-08-19T02:08:27.374Z,14.60
2022-08-19T02:13:29.858Z,15.30
2022-08-19T02:18:31.771Z,15.30
2022-08-19T02:23:33.875Z,15.60
2022-08-19T02:28:37.465Z,15.60
2022-08-19T02:33:40.230Z,16.20
2022-08-19T02:38:43.280Z,15.90
2022-08-19T02:44:28.872Z,15.10
2022-08-19T02:49:11.715Z,15.50
2022-08-19T02:54:14.760Z,16.10
2022-08-19T02:59:16.770Z,16.30
2022-08-19T03:04:20.266Z,17.20
2022-08-19T03:09:22.775Z,17.70
2022-08-19T03:14:25.163Z,16.50
2022-08-19T03:19:28.578Z,17.40
2022-08-19T03:24:31.665Z,16.50
2022-08-19T03:29:34.485Z,17.10
2022-08-19T03:34:45.396Z,17.60
2022-08-19T03:39:47.594Z,17.60
2022-08-19T03:45:03.140Z,17.30
2022-08-19T03:50:06.262Z,17.60
2022-08-19T03:55:09.064Z,16.80
2022-08-19T04:00:13.446Z,17.60
2022-08-19T04:05:16.300Z,16.00
2022-08-19T04:10:18.486Z,16.00
2022-08-19T04:15:20.979Z,16.90
2022-08-19T04:20:23.120Z,15.70
2022-08-19T04:25:25.141Z,16.40
2022-08-19T04:30:53.335Z,15.90
2022-08-19T04:36:02.890Z,16.80
2022-08-19T04:41:23.813Z,16.50
2022-08-19T04:46:40.154Z,16.10
2022-08-19T04:51:55.206Z,16.50
2022-08-19T04:56:57.463Z,17.50
2022-08-19T05:01:59.390Z,16.00
2022-08-19T05:07:02.460Z,17.00
2022-08-19T05:12:04.721Z,16.30
2022-08-19T05:17:26.001Z,14.70
2022-08-19T05:22:48.328Z,14.40
2022-08-19T05:28:03.799Z,16.00
2022-08-19T05:33:05.749Z,14.50
2022-08-19T05:38:09.341Z,14.70
2022-08-19T05:43:11.226Z,13.60
2022-08-19T05:48:13.584Z,12.90
2022-08-19T05:53:17.463Z,12.20
2022-08-19T05:58:19.471Z,11.20
2022-08-19T06:03:25.402Z,12.40
2022-08-19T06:08:33.709Z,11.50
2022-08-19T06:13:37.556Z,11.70
2022-08-19T06:18:39.877Z,11.70
2022-08-19T06:23:41.864Z,11.50
2022-08-19T06:28:47.548Z,11.10
2022-08-19T06:33:50.810Z,10.90
2022-08-19T06:38:52.951Z,10.80
2022-08-19T06:43:58.678Z,10.50
2022-08-19T06:49:01.102Z,10.00
2022-08-19T06:54:04.223Z,10.80
2022-08-19T06:59:24.188Z,9.30
2022-08-19T07:04:30.725Z,10.10
2022-08-19T07:09:33.205Z,9.90
2022-08-19T07:14:38.325Z,9.20
2022-08-19T07:19:42.241Z,8.60
2022-08-19T07:24:51.227Z,9.70
2022-08-19T07:29:57.425Z,8.50
2022-08-19T07:35:01.702Z,9.30
2022-08-19T07:40:08.656Z,8.60
2022-08-19T07:45:11.100Z,8.00
2022-08-19T07:50:13.231Z,8.30
2022-08-19T07:55:42.144Z,8.30
2022-08-19T08:00:37.060Z,7.90
2022-08-19T08:05:58.057Z,8.30
2022-08-19T08:11:00.840Z,8.20
2022-08-19T08:16:03.473Z,8.20
2022-08-19T08:21:05.512Z,8.20
2022-08-19T08:26:07.436Z,7.80
2022-08-19T08:31:10.434Z,7.90
2022-08-19T08:36:14.953Z,7.70
2022-08-19T08:41:48.373Z,8.20
2022-08-19T08:46:59.973Z,8.30
2022-08-19T08:52:12.564Z,9.30
2022-08-19T08:57:20.835Z,8.00
2022-08-19T09:02:23.583Z,7.80
2022-08-19T09:07:58.289Z,9.00
2022-08-19T09:13:12.577Z,7.70
2022-08-19T09:18:35.229Z,7.80
2022-08-19T09:23:45.501Z,7.90
2022-08-19T09:28:49.129Z,8.00
2022-08-19T09:34:07.402Z,8.00
2022-08-19T09:39:23.242Z,7.40
2022-08-19T09:44:25.336Z,7.70
2022-08-19T09:49:28.976Z,7.70
2022-08-19T09:54:31.224Z,8.00
2022-08-19T09:59:33.402Z,8.20
2022-08-19T10:04:55.321Z,8.40
2022-08-19T10:09:57.739Z,7.50
2022-08-19T10:15:14.106Z,8.00
2022-08-19T10:20:16.313Z,8.30
2022-08-19T10:25:18.805Z,7.60
2022-08-19T10:30:38.272Z,7.30
2022-08-19T10:36:10.779Z,7.30
2022-08-19T10:41:16.384Z,7.40
2022-08-19T10:46:18.388Z,8.10
2022-08-19T10:51:44.604Z,7.20
2022-08-19T10:56:53.035Z,7.30
2022-08-19T11:02:17.240Z,7.10
2022-08-19T11:07:33.065Z,6.60
2022-08-19T11:12:47.498Z,7.50
2022-08-19T11:17:49.801Z,7.60
2022-08-19T11:22:53.607Z,7.00
2022-08-19T11:27:55.786Z,5.90
2022-08-19T11:33:07.467Z,5.90
2022-08-19T11:38:09.962Z,6.40
2022-08-19T11:43:12.075Z,7.10
2022-08-19T11:48:14.082Z,6.30
2022-08-19T11:53:17.048Z,7.40
2022-08-19T11:58:19.390Z,6.70
2022-08-19T12:03:21.832Z,6.70
2022-08-19T12:08:23.930Z,6.70
2022-08-19T12:13:26.021Z,6.90
2022-08-19T12:18:28.136Z,8.00
2022-08-19T12:23:30.333Z,6.40
2022-08-19T12:28:32.741Z,7.00
2022-08-19T12:33:34.880Z,6.10
2022-08-19T12:38:41.028Z,6.30
2022-08-19T12:43:43.488Z,6.30
2022-08-19T12:48:46.121Z,6.20
2022-08-19T12:53:48.335Z,6.50
2022-08-19T12:58:51.011Z,5.80
2022-08-19T13:03:55.069Z,6.60
2022-08-19T13:08:59.682Z,6.60
2022-08-19T13:14:22.315Z,6.80
2022-08-19T13:19:38.563Z,6.40
2022-08-19T13:24:45.107Z,6.10
2022-08-19T13:30:07.247Z,6.30
2022-08-19T13:35:11.837Z,6.10
2022-08-19T13:40:19.926Z,6.00
2022-08-19T13:45:44.306Z,5.60
2022-08-19T13:55:52.106Z,6.30
2022-08-19T14:00:54.209Z,6.90
2022-08-19T14:05:56.174Z,6.30
2022-08-19T14:10:58.288Z,6.60
2022-08-19T14:16:00.894Z,7.40
2022-08-19T14:21:05.306Z,5.80
2022-08-19T14:26:18.419Z,6.10
2022-08-19T14:31:21.112Z,6.20
2022-08-19T14:36:23.102Z,6.20
2022-08-19T14:41:25.558Z,6.20
2022-08-19T14:46:29.723Z,5.50
2022-08-19T14:51:32.030Z,4.90
2022-08-19T14:56:34.267Z,5.70
2022-08-19T15:01:36.687Z,5.80
2022-08-19T15:06:38.821Z,4.70
2022-08-19T15:11:40.818Z,5.50
2022-08-19T15:16:42.864Z,6.20
2022-08-19T15:21:44.930Z,5.30
2022-08-19T15:26:47.579Z,5.60
2022-08-19T15:31:49.938Z,5.20
2022-08-19T15:36:53.495Z,6.60
2022-08-19T15:41:55.476Z,5.60
2022-08-19T15:46:57.475Z,5.90
2022-08-19T15:52:14.381Z,5.90
2022-08-19T15:57:22.197Z,6.00
2022-08-19T16:02:47.119Z,7.20
2022-08-19T16:07:49.319Z,6.90
2022-08-19T16:12:51.427Z,6.50
2022-08-19T16:17:56.373Z,8.10
2022-08-19T16:22:59.906Z,7.80
2022-08-19T16:28:07.698Z,9.50
2022-08-19T16:33:23.243Z,8.80
2022-08-19T16:38:26.309Z,8.60
2022-08-19T16:43:31.419Z,8.10
2022-08-19T16:48:33.502Z,9.40
2022-08-19T16:53:37.123Z,8.90
2022-08-19T16:58:39.852Z,9.40
2022-08-19T17:03:41.910Z,8.00
2022-08-19T17:08:48.469Z,7.30
2022-08-19T17:13:51.364Z,8.10
2022-08-19T17:18:55.575Z,6.90
2022-08-19T17:23:59.340Z,8.20
2022-08-19T17:29:01.320Z,5.90
2022-08-19T17:34:04.583Z,4.80
2022-08-19T17:39:06.646Z,5.80
2022-08-19T17:44:09.409Z,6.20
2022-08-19T17:49:11.721Z,8.30
2022-08-19T17:54:17.235Z,9.00
2022-08-19T17:59:19.201Z,8.90
2022-08-19T18:04:23.378Z,10.60
2022-08-19T18:09:27.578Z,9.50
2022-08-19T18:14:34.388Z,10.70
2022-08-19T18:19:42.954Z,9.80
2022-08-19T18:24:45.806Z,9.50
2022-08-19T18:29:48.658Z,11.50
2022-08-19T18:34:50.714Z,9.90
2022-08-19T18:40:11.522Z,10.50
2022-08-19T18:45:38.365Z,11.40
2022-08-19T18:50:58.145Z,13.30
2022-08-19T18:56:00.833Z,14.60
2022-08-19T19:01:26.858Z,15.30
2022-08-19T19:06:34.841Z,13.40
2022-08-19T19:11:39.500Z,11.40
2022-08-19T19:16:45.859Z,10.00
2022-08-19T19:21:49.417Z,11.60
2022-08-19T19:26:53.422Z,11.60
2022-08-19T19:31:56.178Z,8.10
2022-08-19T19:36:58.135Z,7.10
2022-08-19T19:42:00.199Z,8.00
2022-08-19T19:47:16.210Z,8.80
2022-08-19T19:52:18.379Z,9.40
2022-08-19T19:57:20.339Z,11.30
2022-08-19T20:02:22.247Z,12.90
2022-08-19T20:07:46.432Z,13.60
2022-08-19T20:12:48.516Z,13.60
2022-08-19T20:17:51.453Z,17.20
2022-08-19T20:22:54.024Z,19.30
2022-08-19T20:27:56.601Z,18.50
2022-08-19T20:32:59.204Z,18.40
2022-08-19T20:38:08.861Z,20.70
2022-08-19T20:43:13.096Z,18.00
2022-08-19T20:48:15.071Z,16.80
2022-08-19T20:53:20.946Z,16.80
2022-08-19T20:58:24.974Z,17.60
2022-08-19T21:03:30.310Z,22.00
2022-08-19T21:08:32.312Z,23.10
2022-08-19T21:13:35.217Z,24.30
2022-08-19T21:18:37.399Z,19.50
2022-08-19T21:23:39.405Z,16.80
2022-08-19T21:28:41.471Z,15.60
2022-08-19T21:33:44.074Z,14.10
2022-08-19T21:38:46.443Z,16.00
2022-08-19T21:43:48.735Z,12.70
2022-08-19T21:48:50.861Z,11.60
2022-08-19T21:54:00.477Z,12.50
2022-08-19T21:59:02.659Z,12.70
2022-08-19T22:04:04.950Z,11.80
2022-08-19T22:09:08.571Z,13.30
2022-08-19T22:14:10.656Z,13.80
2022-08-19T22:19:20.204Z,14.30
2022-08-19T22:24:22.657Z,14.60
2022-08-19T22:29:33.888Z,16.90
2022-08-19T22:34:42.756Z,17.30
2022-08-19T22:39:50.937Z,17.60
2022-08-19T22:44:53.014Z,16.10
2022-08-19T22:49:56.562Z,17.00
2022-08-19T22:55:08.560Z,17.70
2022-08-19T23:00:12.790Z,15.90
2022-08-19T23:05:14.884Z,16.00
2022-08-19T23:10:19.135Z,16.50
2022-08-19T23:15:31.854Z,16.10
2022-08-19T23:20:37.528Z,17.60
2022-08-19T23:26:00.486Z,18.50
2022-08-19T23:31:16.935Z,17.70
2022-08-19T23:36:27.339Z,20.00
2022-08-19T23:41:29.446Z,18.40
2022-08-19T23:46:31.582Z,20.30
2022-08-19T23:51:44.115Z,20.60
2022-08-19T23:56:46.366Z,20.40
